Time;durP1;ratioP1;P1;durP2;ratioP2;P2;SDS_P1;SDS_P2;PMS_P1;PMS_P2;Temp;Humidity;BMP_temperature;BMP_pressure;BME280_temperature;BME280_humidity;BME280_pressure;Samples;Min_cycle;Max_cycle;Signal;HPM_P1;HPM_P2
2024/02/26 00:00:09;;;;;;;5.10;4.40;;;;;;;6.06;100.00;96816.76;110260;1242;58870;-61
2024/02/26 00:02:57;;;;;;;6.80;4.90;;;;;;;6.14;100.00;96814.35;110291;1241;58885;-60
2024/02/26 00:05:27;;;;;;;8.20;5.30;;;;;;;6.20;100.00;96815.73;110307;1242;70576;-60
2024/02/26 00:07:56;;;;;;;6.90;5.30;;;;;;;6.24;100.00;96814.06;110352;1241;69649;-60
2024/02/26 00:10:25;;;;;;;6.70;5.30;;;;;;;6.24;100.00;96810.77;110234;1241;68581;-61
2024/02/26 00:12:54;;;;;;;6.80;5.10;;;;;;;6.24;100.00;96811.30;110255;1247;58929;-61
2024/02/26 00:15:23;;;;;;;7.10;5.40;;;;;;;6.23;100.00;96811.84;110291;1242;58859;-61
2024/02/26 00:17:52;;;;;;;6.50;4.40;;;;;;;6.22;100.00;96816.94;110300;1241;69839;-60
2024/02/26 00:20:21;;;;;;;6.30;4.50;;;;;;;6.21;100.00;96812.75;110220;1241;69036;-60
2024/02/26 00:22:50;;;;;;;5.80;4.30;;;;;;;6.19;100.00;96810.76;110242;1241;69120;-60
2024/02/26 00:25:19;;;;;;;6.70;4.60;;;;;;;6.20;100.00;96811.92;110238;1240;58911;-61
2024/02/26 00:27:48;;;;;;;7.50;4.20;;;;;;;6.22;100.00;96813.02;110261;1241;58874;-60
2024/02/26 00:30:17;;;;;;;4.50;3.40;;;;;;;6.21;100.00;96809.29;110184;1249;70116;-61
2024/02/26 00:32:46;;;;;;;5.90;4.40;;;;;;;6.18;100.00;96813.44;110220;1242;68083;-61
2024/02/26 00:35:16;;;;;;;4.90;4.00;;;;;;;6.11;100.00;96812.06;110213;1242;69312;-60
2024/02/26 00:37:45;;;;;;;5.10;3.90;;;;;;;6.03;100.00;96809.50;110244;1241;58889;-60
2024/02/26 00:40:14;;;;;;;5.40;3.90;;;;;;;5.93;100.00;96808.23;110288;1241;58877;-60
2024/02/26 00:42:45;;;;;;;6.20;4.30;;;;;;;5.84;100.00;96806.22;110290;1242;71287;-61
2024/02/26 00:45:16;;;;;;;5.10;3.90;;;;;;;5.79;100.00;96805.33;110289;1246;69816;-59
2024/02/26 00:47:47;;;;;;;5.20;3.70;;;;;;;5.76;100.00;96804.27;110245;1242;69693;-59
2024/02/26 00:50:16;;;;;;;5.60;3.60;;;;;;;5.76;100.00;96802.90;110261;1242;58916;-59
2024/02/26 00:52:46;;;;;;;4.30;3.10;;;;;;;5.78;100.00;96804.88;110261;1242;58876;-61
2024/02/26 00:55:16;;;;;;;4.10;3.40;;;;;;;5.79;100.00;96803.73;110290;1241;71150;-60
2024/02/26 00:57:45;;;;;;;5.80;3.60;;;;;;;5.80;100.00;96798.19;110324;1241;69269;-61
2024/02/26 01:00:15;;;;;;;5.20;3.40;;;;;;;5.82;100.00;96796.63;110316;1241;69262;-60
2024/02/26 01:02:46;;;;;;;5.20;3.80;;;;;;;5.83;100.00;96793.14;110267;1241;59002;-60
2024/02/26 01:05:16;;;;;;;4.20;2.90;;;;;;;5.81;100.00;96789.95;110260;1241;58902;-62
2024/02/26 01:07:45;;;;;;;3.50;2.60;;;;;;;5.77;100.00;96787.98;110282;1242;71105;-60
2024/02/26 01:10:14;;;;;;;4.20;3.40;;;;;;;5.73;100.00;96786.50;110350;1241;69247;-59
2024/02/26 01:12:43;;;;;;;4.50;3.70;;;;;;;5.71;100.00;96779.02;110281;1240;68526;-59
2024/02/26 01:15:12;;;;;;;5.20;3.90;;;;;;;5.71;100.00;96774.73;110170;1241;58943;-59
2024/02/26 01:17:42;;;;;;;5.20;3.40;;;;;;;5.72;100.00;96772.20;110296;1241;58836;-59
2024/02/26 01:20:11;;;;;;;4.50;3.50;;;;;;;5.73;100.00;96771.96;110283;1243;70560;-60
2024/02/26 01:22:40;;;;;;;5.00;3.80;;;;;;;5.73;100.00;96776.99;110294;1239;69660;-61
2024/02/26 01:25:09;;;;;;;4.50;3.80;;;;;;;5.72;100.00;96776.73;110267;1241;68516;-60
2024/02/26 01:27:40;;;;;;;4.70;3.50;;;;;;;5.66;100.00;96771.42;110233;1241;58915;-59
2024/02/26 01:30:11;;;;;;;6.60;4.80;;;;;;;5.59;100.00;96768.84;110117;1244;58909;-60
2024/02/26 01:32:39;;;;;;;8.70;5.90;;;;;;;5.53;100.00;96763.91;110152;1244;70097;-60
2024/02/26 01:35:11;;;;;;;6.00;4.80;;;;;;;5.45;100.00;96765.27;110133;1241;69114;-64
2024/02/26 01:37:41;;;;;;;5.80;4.00;;;;;;;5.40;100.00;96760.04;110146;1241;69066;-60
2024/02/26 01:40:11;;;;;;;5.40;4.10;;;;;;;5.38;100.00;96761.77;110122;1241;58933;-60
2024/02/26 01:42:41;;;;;;;4.50;3.50;;;;;;;5.37;100.00;96765.45;110136;1241;58902;-60
2024/02/26 01:45:15;;;;;;;;;;;;;;;5.42;100.00;96761.52;110156;1244;71281;-60
2024/02/26 01:47:45;;;;;;;5.00;3.60;;;;;;;5.51;100.00;96755.52;110146;1241;69146;-60
2024/02/26 01:50:15;;;;;;;;;;;;;;;5.60;100.00;96755.86;110140;1244;69833;-60
2024/02/26 01:52:46;;;;;;;5.50;3.80;;;;;;;5.65;100.00;96751.92;110109;1241;58855;-60
2024/02/26 01:55:16;;;;;;;5.80;3.80;;;;;;;5.69;100.00;96756.84;110130;1241;58953;-60
2024/02/26 01:57:48;;;;;;;4.80;3.60;;;;;;;5.72;100.00;96756.51;110002;1241;70690;-60
2024/02/26 02:00:18;;;;;;;4.30;3.50;;;;;;;5.71;100.00;96758.48;110139;1241;68536;-60
2024/02/26 02:02:50;;;;;;;5.00;3.80;;;;;;;5.67;100.00;96759.21;110153;1241;69007;-60
2024/02/26 02:05:21;;;;;;;5.90;4.50;;;;;;;5.60;100.00;96759.30;110124;1244;58867;-60
2024/02/26 02:07:51;;;;;;;7.40;4.70;;;;;;;5.52;100.00;96756.68;110151;1245;58875;-60
2024/02/26 02:10:22;;;;;;;6.60;4.20;;;;;;;5.45;100.00;96765.41;110093;1243;71179;-60
2024/02/26 02:12:52;;;;;;;6.30;4.50;;;;;;;5.40;100.00;96765.26;110105;1241;68271;-59
2024/02/26 02:15:21;;;;;;;5.20;4.10;;;;;;;5.32;100.00;96767.08;110133;1241;69326;-61
2024/02/26 02:17:51;;;;;;;7.00;3.90;;;;;;;5.28;100.00;96769.06;110127;1245;58969;-59
2024/02/26 02:20:47;;;;;;;6.50;4.40;;;;;;;5.24;100.00;96763.31;110141;1244;58877;-59
2024/02/26 02:23:16;;;;;;;5.00;4.10;;;;;;;5.18;100.00;96763.14;110162;1245;71180;-60
2024/02/26 02:25:46;;;;;;;5.70;4.10;;;;;;;5.16;100.00;96762.72;110171;1243;69909;-60
2024/02/26 02:28:15;;;;;;;5.20;3.90;;;;;;;5.16;100.00;96765.90;110134;1243;69262;-60
2024/02/26 02:30:44;;;;;;;4.70;3.80;;;;;;;5.17;100.00;96768.95;110135;1244;58901;-60
2024/02/26 02:33:15;;;;;;;6.00;4.00;;;;;;;5.13;100.00;96773.30;110116;1242;58892;-60
2024/02/26 02:35:44;;;;;;;4.50;3.70;;;;;;;5.04;100.00;96770.20;110131;1244;70044;-60
2024/02/26 02:38:13;;;;;;;5.50;4.20;;;;;;;4.98;100.00;96766.79;110121;1245;69242;-60
2024/02/26 02:40:42;;;;;;;7.50;5.50;;;;;;;4.84;100.00;96769.52;110095;1241;69530;-60
2024/02/26 02:43:11;;;;;;;7.10;4.50;;;;;;;4.53;100.00;96775.48;110105;1244;58924;-60
2024/02/26 02:45:39;;;;;;;6.70;4.20;;;;;;;4.46;100.00;96773.70;110115;1244;58867;-60
2024/02/26 02:48:08;;;;;;;5.80;4.10;;;;;;;4.37;100.00;96776.79;110143;1243;70892;-60
2024/02/26 02:50:38;;;;;;;6.00;4.00;;;;;;;4.37;100.00;96772.98;110143;1244;69058;-59
2024/02/26 02:53:07;;;;;;;6.40;5.00;;;;;;;4.43;100.00;96779.16;110115;1245;69807;-60
2024/02/26 02:55:36;;;;;;;8.30;6.60;;;;;;;4.36;100.00;96796.14;110122;1244;58952;-59
2024/02/26 02:58:05;;;;;;;8.30;5.50;;;;;;;4.18;100.00;96801.17;110140;1241;58179;-60
2024/02/26 03:00:34;;;;;;;7.60;4.80;;;;;;;4.13;100.00;96801.11;110201;1244;71151;-59
2024/02/26 03:03:04;;;;;;;8.50;5.70;;;;;;;4.14;100.00;96808.30;110150;1243;68497;-59
2024/02/26 03:05:32;;;;;;;8.30;5.70;;;;;;;4.02;100.00;96809.32;110137;1243;70230;-59
2024/02/26 03:08:04;;;;;;;7.50;5.60;;;;;;;3.97;100.00;96810.27;110148;1244;58855;-59
2024/02/26 03:10:33;;;;;;;6.80;4.80;;;;;;;3.93;100.00;96807.25;110154;1244;58881;-59
2024/02/26 03:13:02;;;;;;;6.50;4.00;;;;;;;3.88;100.00;96802.32;110141;1244;70555;-59
2024/02/26 03:15:32;;;;;;;8.90;6.80;;;;;;;3.90;100.00;96801.35;110235;1241;67470;-59
2024/02/26 03:18:01;;;;;;;8.50;5.50;;;;;;;3.96;100.00;96801.16;110194;1241;69819;-61
2024/02/26 03:20:30;;;;;;;8.10;4.70;;;;;;;4.00;100.00;96796.51;110266;1243;58874;-58
2024/02/26 03:22:59;;;;;;;10.50;7.00;;;;;;;4.01;100.00;96797.98;110421;1244;58854;-59
2024/02/26 03:25:27;;;;;;;9.60;6.50;;;;;;;4.01;100.00;96795.70;110311;1244;70943;-60
2024/02/26 03:27:56;;;;;;;10.30;7.30;;;;;;;4.01;100.00;96796.22;110189;1241;69218;-60
2024/02/26 03:30:25;;;;;;;11.20;7.20;;;;;;;4.01;100.00;96793.98;110156;1245;69265;-59
2024/02/26 03:32:55;;;;;;;10.50;7.20;;;;;;;3.99;100.00;96792.58;110182;1244;58873;-59
2024/02/26 03:35:23;;;;;;;7.40;5.60;;;;;;;3.96;100.00;96793.77;110125;1242;58891;-59
2024/02/26 03:37:54;;;;;;;7.00;5.20;;;;;;;3.95;100.00;96792.12;110161;1243;70140;-61
2024/02/26 03:40:24;;;;;;;7.40;4.90;;;;;;;3.96;100.00;96796.20;110119;1241;68426;-59
2024/02/26 03:42:53;;;;;;;7.80;5.10;;;;;;;3.96;100.00;96793.98;110179;1241;68146;-59
2024/02/26 03:45:23;;;;;;;8.40;6.00;;;;;;;3.95;100.00;96791.23;110162;1244;58907;-59
2024/02/26 03:47:51;;;;;;;13.90;6.30;;;;;;;3.97;100.00;96792.34;110226;1244;58874;-58
2024/02/26 03:50:21;;;;;;;7.50;5.90;;;;;;;3.97;100.00;96787.32;110228;1245;71530;-61
2024/02/26 03:52:50;;;;;;;8.00;5.90;;;;;;;3.97;100.00;96793.70;110047;1244;69869;-58
2024/02/26 03:55:24;;;;;;;7.60;5.90;;;;;;;3.95;100.00;96794.68;110152;1244;69281;-59
2024/02/26 03:57:54;;;;;;;7.90;6.60;;;;;;;3.91;100.00;96792.51;110114;1244;58830;-59
2024/02/26 04:00:23;;;;;;;8.20;5.90;;;;;;;3.88;100.00;96794.23;110181;1244;58883;-58
2024/02/26 04:02:52;;;;;;;9.20;6.10;;;;;;;3.86;100.00;96790.56;110203;1244;71018;-58
2024/02/26 04:05:21;;;;;;;9.10;7.20;;;;;;;3.87;100.00;96788.10;110251;1244;69112;-59
2024/02/26 04:07:50;;;;;;;10.20;6.90;;;;;;;3.88;100.00;96792.16;110162;1244;69709;-61
2024/02/26 04:10:19;;;;;;;8.50;6.50;;;;;;;3.90;100.00;96792.08;110162;1243;58936;-59
2024/02/26 04:12:48;;;;;;;8.20;6.90;;;;;;;3.93;100.00;96792.95;110192;1241;58895;-58
2024/02/26 04:15:17;;;;;;;9.80;7.20;;;;;;;3.94;100.00;96794.42;110109;1244;71038;-59
2024/02/26 04:17:46;;;;;;;8.60;6.80;;;;;;;3.96;100.00;96793.27;110161;1244;69940;-60
2024/02/26 04:20:16;;;;;;;12.30;7.10;;;;;;;3.97;100.00;96794.74;110138;1245;68805;-59
2024/02/26 04:22:45;;;;;;;10.10;7.40;;;;;;;3.98;100.00;96793.16;110107;1241;58900;-59
2024/02/26 04:25:14;;;;;;;11.80;8.40;;;;;;;3.96;100.00;96788.60;110127;1245;58867;-58
2024/02/26 04:27:43;;;;;;;11.00;7.30;;;;;;;3.91;100.00;96784.43;110170;1243;71447;-59
2024/02/26 04:30:12;;;;;;;11.40;7.70;;;;;;;3.85;100.00;96781.28;110197;1244;69721;-58
2024/02/26 04:32:41;;;;;;;9.30;7.10;;;;;;;3.81;100.00;96780.34;110143;1241;70003;-59
2024/02/26 04:35:10;;;;;;;9.40;7.50;;;;;;;3.73;100.00;96779.88;110154;1244;59291;-58
2024/02/26 04:37:39;;;;;;;10.60;7.50;;;;;;;3.67;100.00;96778.53;110233;1241;58872;-58
2024/02/26 04:40:09;;;;;;;10.00;7.30;;;;;;;3.60;100.00;96777.02;110232;1244;71632;-59
2024/02/26 04:42:38;;;;;;;8.30;6.00;;;;;;;3.59;100.00;96780.33;110164;1241;69190;-59
2024/02/26 04:45:08;;;;;;;10.50;6.70;;;;;;;3.56;100.00;96780.34;110159;1242;68701;-58
2024/02/26 04:47:37;;;;;;;13.80;9.90;;;;;;;3.51;100.00;96777.46;110103;1241;58919;-59
2024/02/26 04:50:06;;;;;;;10.10;7.90;;;;;;;3.43;100.00;96780.34;110182;1244;58843;-59
2024/02/26 04:52:36;;;;;;;8.50;6.20;;;;;;;3.38;100.00;96783.39;110127;1245;70203;-59
2024/02/26 04:55:06;;;;;;;7.60;6.30;;;;;;;3.34;100.00;96788.23;110139;1244;69211;-58
2024/02/26 04:57:34;;;;;;;8.00;6.30;;;;;;;3.32;100.00;96784.38;110192;1243;70219;-59
2024/02/26 05:00:05;;;;;;;8.00;6.20;;;;;;;3.33;100.00;96781.75;110176;1245;58958;-59
2024/02/26 05:02:37;;;;;;;7.60;5.90;;;;;;;3.30;100.00;96785.32;110162;1243;58880;-59
2024/02/26 05:05:08;;;;;;;7.50;5.40;;;;;;;3.31;100.00;96782.73;110203;1243;71111;-58
2024/02/26 05:07:45;;;;;;;7.40;5.30;;;;;;;3.34;100.00;96781.54;109727;1241;615492;-57
2024/02/26 05:10:14;;;;;;;6.20;4.90;;;;;;;3.40;100.00;96782.91;110119;1244;69288;-58
2024/02/26 05:12:43;;;;;;;8.50;4.90;;;;;;;3.47;100.00;96788.40;110130;1241;58925;-57
2024/02/26 05:15:17;;;;;;;7.30;5.40;;;;;;;3.51;100.00;96789.55;110112;1245;58828;-57
2024/02/26 05:17:48;;;;;;;7.40;4.90;;;;;;;3.54;100.00;96790.78;110132;1243;71012;-57
2024/02/26 05:20:17;;;;;;;5.90;4.40;;;;;;;3.58;100.00;96793.80;110103;1244;69801;-59
2024/02/26 05:22:47;;;;;;;7.00;4.70;;;;;;;3.62;100.00;96789.29;110094;1244;69345;-59
